sensor_id;sensor_type;location;lat;lon;timestamp;P1;durP1;ratioP1;P2;durP2;ratioP2
11767;SDS011;5941;57.652;12.514;2022-12-07T00:00:19;3.90;;;1.90;;
11767;SDS011;5941;57.652;12.514;2022-12-07T00:02:45;3.07;;;2.00;;
11767;SDS011;5941;57.652;12.514;2022-12-07T00:05:11;3.50;;;2.13;;
11767;SDS011;5941;57.652;12.514;2022-12-07T00:07:37;2.77;;;2.03;;
11767;SDS011;5941;57.652;12.514;2022-12-07T00:10:03;2.97;;;1.90;;
11767;SDS011;5941;57.652;12.514;2022-12-07T00:12:29;3.70;;;2.20;;
11767;SDS011;5941;57.652;12.514;2022-12-07T00:14:55;3.13;;;1.83;;
11767;SDS011;5941;57.652;12.514;2022-12-07T00:17:21;2.87;;;2.00;;
11767;SDS011;5941;57.652;12.514;2022-12-07T00:19:47;2.97;;;2.30;;
11767;SDS011;5941;57.652;12.514;2022-12-07T00:22:13;3.27;;;2.10;;
11767;SDS011;5941;57.652;12.514;2022-12-07T00:24:39;4.20;;;2.43;;
11767;SDS011;5941;57.652;12.514;2022-12-07T00:27:05;2.70;;;1.77;;
11767;SDS011;5941;57.652;12.514;2022-12-07T00:29:31;2.77;;;1.97;;
11767;SDS011;5941;57.652;12.514;2022-12-07T00:31:57;2.70;;;1.93;;
11767;SDS011;5941;57.652;12.514;2022-12-07T00:34:23;3.90;;;2.23;;
11767;SDS011;5941;57.652;12.514;2022-12-07T00:36:49;2.73;;;1.73;;
11767;SDS011;5941;57.652;12.514;2022-12-07T00:39:15;3.30;;;2.27;;
11767;SDS011;5941;57.652;12.514;2022-12-07T00:41:41;3.03;;;1.97;;
11767;SDS011;5941;57.652;12.514;2022-12-07T00:44:07;1.80;;;1.60;;
11767;SDS011;5941;57.652;12.514;2022-12-07T00:46:33;2.93;;;1.67;;
11767;SDS011;5941;57.652;12.514;2022-12-07T00:48:59;1.70;;;1.50;;
11767;SDS011;5941;57.652;12.514;2022-12-07T00:51:25;3.53;;;2.20;;
11767;SDS011;5941;57.652;12.514;2022-12-07T00:53:51;3.97;;;1.93;;
11767;SDS011;5941;57.652;12.514;2022-12-07T00:56:19;2.70;;;1.97;;
11767;SDS011;5941;57.652;12.514;2022-12-07T00:59:03;2.70;;;1.90;;
11767;SDS011;5941;57.652;12.514;2022-12-07T01:01:31;2.70;;;1.73;;
11767;SDS011;5941;57.652;12.514;2022-12-07T01:03:57;3.07;;;1.87;;
11767;SDS011;5941;57.652;12.514;2022-12-07T01:06:26;2.60;;;1.83;;
11767;SDS011;5941;57.652;12.514;2022-12-07T01:08:52;2.53;;;1.70;;
11767;SDS011;5941;57.652;12.514;2022-12-07T01:11:20;3.63;;;2.03;;
11767;SDS011;5941;57.652;12.514;2022-12-07T01:13:46;2.37;;;1.77;;
11767;SDS011;5941;57.652;12.514;2022-12-07T01:16:14;2.37;;;1.80;;
11767;SDS011;5941;57.652;12.514;2022-12-07T01:18:40;1.83;;;1.50;;
11767;SDS011;5941;57.652;12.514;2022-12-07T01:23:33;3.00;;;2.00;;
11767;SDS011;5941;57.652;12.514;2022-12-07T01:26:00;4.90;;;1.70;;
11767;SDS011;5941;57.652;12.514;2022-12-07T01:28:26;3.70;;;1.80;;
11767;SDS011;5941;57.652;12.514;2022-12-07T01:30:59;2.23;;;1.80;;
11767;SDS011;5941;57.652;12.514;2022-12-07T01:33:26;2.23;;;1.80;;
11767;SDS011;5941;57.652;12.514;2022-12-07T01:35:53;3.13;;;2.10;;
11767;SDS011;5941;57.652;12.514;2022-12-07T01:38:19;3.03;;;2.10;;
11767;SDS011;5941;57.652;12.514;2022-12-07T01:40:45;3.73;;;2.10;;
11767;SDS011;5941;57.652;12.514;2022-12-07T01:43:15;2.07;;;1.87;;
11767;SDS011;5941;57.652;12.514;2022-12-07T01:45:43;3.53;;;2.10;;
11767;SDS011;5941;57.652;12.514;2022-12-07T01:48:09;4.07;;;2.13;;
11767;SDS011;5941;57.652;12.514;2022-12-07T01:50:36;4.20;;;2.20;;
11767;SDS011;5941;57.652;12.514;2022-12-07T01:53:03;3.00;;;1.83;;
11767;SDS011;5941;57.652;12.514;2022-12-07T01:55:30;2.40;;;1.60;;
11767;SDS011;5941;57.652;12.514;2022-12-07T01:57:56;3.47;;;2.00;;
11767;SDS011;5941;57.652;12.514;2022-12-07T02:00:22;2.20;;;1.57;;
11767;SDS011;5941;57.652;12.514;2022-12-07T02:02:55;2.47;;;1.97;;
11767;SDS011;5941;57.652;12.514;2022-12-07T02:05:23;2.13;;;1.60;;
11767;SDS011;5941;57.652;12.514;2022-12-07T02:07:49;3.03;;;1.90;;
11767;SDS011;5941;57.652;12.514;2022-12-07T02:10:17;3.37;;;1.57;;
11767;SDS011;5941;57.652;12.514;2022-12-07T02:12:44;2.73;;;1.83;;
11767;SDS011;5941;57.652;12.514;2022-12-07T02:15:12;3.03;;;1.73;;
11767;SDS011;5941;57.652;12.514;2022-12-07T02:17:44;2.80;;;1.77;;
11767;SDS011;5941;57.652;12.514;2022-12-07T02:22:54;2.67;;;1.63;;
11767;SDS011;5941;57.652;12.514;2022-12-07T02:30:33;3.13;;;1.70;;
11767;SDS011;5941;57.652;12.514;2022-12-07T02:33:04;2.10;;;1.90;;
11767;SDS011;5941;57.652;12.514;2022-12-07T02:35:42;2.20;;;1.60;;
11767;SDS011;5941;57.652;12.514;2022-12-07T02:38:14;2.17;;;1.77;;
11767;SDS011;5941;57.652;12.514;2022-12-07T02:40:43;3.83;;;1.93;;
11767;SDS011;5941;57.652;12.514;2022-12-07T02:43:12;2.37;;;1.60;;
11767;SDS011;5941;57.652;12.514;2022-12-07T02:45:40;1.83;;;1.50;;
11767;SDS011;5941;57.652;12.514;2022-12-07T02:48:07;2.63;;;1.90;;
11767;SDS011;5941;57.652;12.514;2022-12-07T02:50:34;1.70;;;1.60;;
11767;SDS011;5941;57.652;12.514;2022-12-07T02:53:00;2.23;;;1.60;;
11767;SDS011;5941;57.652;12.514;2022-12-07T02:55:28;3.20;;;1.83;;
11767;SDS011;5941;57.652;12.514;2022-12-07T03:00:24;2.60;;;1.40;;
11767;SDS011;5941;57.652;12.514;2022-12-07T03:03:04;2.70;;;1.70;;
11767;SDS011;5941;57.652;12.514;2022-12-07T03:08:13;2.40;;;1.50;;
11767;SDS011;5941;57.652;12.514;2022-12-07T03:13:11;1.60;;;1.50;;
11767;SDS011;5941;57.652;12.514;2022-12-07T03:18:20;3.17;;;1.60;;
11767;SDS011;5941;57.652;12.514;2022-12-07T03:20:47;2.27;;;1.67;;
11767;SDS011;5941;57.652;12.514;2022-12-07T03:23:13;3.50;;;1.47;;
11767;SDS011;5941;57.652;12.514;2022-12-07T03:25:41;3.67;;;1.40;;
11767;SDS011;5941;57.652;12.514;2022-12-07T03:28:08;2.13;;;1.70;;
11767;SDS011;5941;57.652;12.514;2022-12-07T03:30:39;1.50;;;1.40;;
11767;SDS011;5941;57.652;12.514;2022-12-07T03:33:15;2.73;;;1.50;;
11767;SDS011;5941;57.652;12.514;2022-12-07T03:41:32;2.27;;;1.60;;
11767;SDS011;5941;57.652;12.514;2022-12-07T03:44:00;3.30;;;1.70;;
11767;SDS011;5941;57.652;12.514;2022-12-07T03:46:29;3.37;;;1.87;;
11767;SDS011;5941;57.652;12.514;2022-12-07T03:49:06;1.90;;;1.33;;
11767;SDS011;5941;57.652;12.514;2022-12-07T03:51:37;3.07;;;1.73;;
11767;SDS011;5941;57.652;12.514;2022-12-07T03:54:13;2.57;;;1.70;;
11767;SDS011;5941;57.652;12.514;2022-12-07T03:56:41;2.87;;;1.70;;
11767;SDS011;5941;57.652;12.514;2022-12-07T03:59:07;1.63;;;1.43;;
11767;SDS011;5941;57.652;12.514;2022-12-07T04:01:33;2.40;;;1.53;;
11767;SDS011;5941;57.652;12.514;2022-12-07T04:03:59;2.73;;;1.83;;
11767;SDS011;5941;57.652;12.514;2022-12-07T04:06:25;2.03;;;1.57;;
11767;SDS011;5941;57.652;12.514;2022-12-07T04:08:51;2.03;;;1.30;;
11767;SDS011;5941;57.652;12.514;2022-12-07T04:11:17;2.03;;;1.67;;
11767;SDS011;5941;57.652;12.514;2022-12-07T04:13:43;1.70;;;1.43;;
11767;SDS011;5941;57.652;12.514;2022-12-07T04:16:28;2.10;;;1.33;;
11767;SDS011;5941;57.652;12.514;2022-12-07T04:18:54;2.67;;;1.60;;
11767;SDS011;5941;57.652;12.514;2022-12-07T04:21:20;3.53;;;1.60;;
11767;SDS011;5941;57.652;12.514;2022-12-07T04:23:46;2.47;;;1.70;;
11767;SDS011;5941;57.652;12.514;2022-12-07T04:26:12;2.50;;;1.40;;
11767;SDS011;5941;57.652;12.514;2022-12-07T04:28:37;2.03;;;1.60;;
11767;SDS011;5941;57.652;12.514;2022-12-07T04:31:03;1.80;;;1.43;;
11767;SDS011;5941;57.652;12.514;2022-12-07T04:33:29;4.10;;;1.50;;
11767;SDS011;5941;57.652;12.514;2022-12-07T04:35:55;3.37;;;1.67;;
11767;SDS011;5941;57.652;12.514;2022-12-07T04:38:21;4.73;;;1.43;;
11767;SDS011;5941;57.652;12.514;2022-12-07T04:40:47;4.90;;;1.60;;
11767;SDS011;5941;57.652;12.514;2022-12-07T04:43:13;2.73;;;1.40;;
11767;SDS011;5941;57.652;12.514;2022-12-07T04:45:39;2.47;;;1.47;;
11767;SDS011;5941;57.652;12.514;2022-12-07T04:48:05;2.57;;;1.43;;
11767;SDS011;5941;57.652;12.514;2022-12-07T04:50:31;4.10;;;1.43;;
11767;SDS011;5941;57.652;12.514;2022-12-07T04:52:57;2.23;;;1.10;;
11767;SDS011;5941;57.652;12.514;2022-12-07T04:55:23;2.77;;;1.40;;
11767;SDS011;5941;57.652;12.514;2022-12-07T04:57:49;2.00;;;1.63;;
11767;SDS011;5941;57.652;12.514;2022-12-07T05:00:15;3.30;;;1.53;;
11767;SDS011;5941;57.652;12.514;2022-12-07T05:02:41;2.60;;;1.40;;
11767;SDS011;5941;57.652;12.514;2022-12-07T05:05:07;2.40;;;1.40;;
11767;SDS011;5941;57.652;12.514;2022-12-07T05:07:33;2.73;;;1.33;;
11767;SDS011;5941;57.652;12.514;2022-12-07T05:09:59;2.53;;;1.33;;
11767;SDS011;5941;57.652;12.514;2022-12-07T05:12:25;2.30;;;1.60;;
11767;SDS011;5941;57.652;12.514;2022-12-07T05:14:51;2.87;;;1.67;;
11767;SDS011;5941;57.652;12.514;2022-12-07T05:17:17;2.70;;;1.17;;
11767;SDS011;5941;57.652;12.514;2022-12-07T05:19:43;1.70;;;1.60;;
11767;SDS011;5941;57.652;12.514;2022-12-07T05:22:09;2.57;;;1.50;;
11767;SDS011;5941;57.652;12.514;2022-12-07T05:24:35;1.90;;;1.40;;
11767;SDS011;5941;57.652;12.514;2022-12-07T05:27:01;2.33;;;1.50;;
11767;SDS011;5941;57.652;12.514;2022-12-07T05:29:27;3.83;;;1.40;;
11767;SDS011;5941;57.652;12.514;2022-12-07T05:31:53;2.43;;;1.33;;
11767;SDS011;5941;57.652;12.514;2022-12-07T05:34:19;3.23;;;1.60;;
11767;SDS011;5941;57.652;12.514;2022-12-07T05:36:45;3.67;;;1.60;;
11767;SDS011;5941;57.652;12.514;2022-12-07T05:39:11;2.87;;;1.50;;
11767;SDS011;5941;57.652;12.514;2022-12-07T05:41:37;2.37;;;1.40;;
11767;SDS011;5941;57.652;12.514;2022-12-07T05:44:22;2.27;;;1.53;;
11767;SDS011;5941;57.652;12.514;2022-12-07T05:46:48;3.00;;;1.60;;
11767;SDS011;5941;57.652;12.514;2022-12-07T05:49:14;2.73;;;1.57;;
11767;SDS011;5941;57.652;12.514;2022-12-07T05:51:40;2.20;;;1.37;;
11767;SDS011;5941;57.652;12.514;2022-12-07T05:54:06;2.60;;;1.63;;
11767;SDS011;5941;57.652;12.514;2022-12-07T05:56:32;2.10;;;1.30;;
11767;SDS011;5941;57.652;12.514;2022-12-07T05:58:58;1.50;;;1.13;;
11767;SDS011;5941;57.652;12.514;2022-12-07T06:01:43;1.97;;;1.47;;
11767;SDS011;5941;57.652;12.514;2022-12-07T06:04:08;2.47;;;1.40;;
11767;SDS011;5941;57.652;12.514;2022-12-07T06:06:34;2.53;;;1.20;;
11767;SDS011;5941;57.652;12.514;2022-12-07T06:09:00;1.27;;;1.10;;
11767;SDS011;5941;57.652;12.514;2022-12-07T06:11:26;1.70;;;1.50;;
11767;SDS011;5941;57.652;12.514;2022-12-07T06:14:11;2.17;;;1.40;;
11767;SDS011;5941;57.652;12.514;2022-12-07T06:16:37;2.60;;;1.27;;
11767;SDS011;5941;57.652;12.514;2022-12-07T06:19:03;1.70;;;0.90;;
11767;SDS011;5941;57.652;12.514;2022-12-07T06:21:29;2.83;;;1.27;;
11767;SDS011;5941;57.652;12.514;2022-12-07T06:23:55;2.23;;;1.20;;
11767;SDS011;5941;57.652;12.514;2022-12-07T06:26:21;2.20;;;1.30;;
11767;SDS011;5941;57.652;12.514;2022-12-07T06:28:47;1.77;;;1.30;;
11767;SDS011;5941;57.652;12.514;2022-12-07T06:31:13;1.97;;;1.30;;
11767;SDS011;5941;57.652;12.514;2022-12-07T06:33:39;2.13;;;1.20;;
11767;SDS011;5941;57.652;12.514;2022-12-07T06:36:05;2.40;;;1.27;;
11767;SDS011;5941;57.652;12.514;2022-12-07T06:38:31;1.40;;;1.20;;
11767;SDS011;5941;57.652;12.514;2022-12-07T06:40:57;4.30;;;1.63;;
11767;SDS011;5941;57.652;12.514;2022-12-07T06:43:23;1.87;;;1.60;;
11767;SDS011;5941;57.652;12.514;2022-12-07T06:45:49;2.60;;;1.60;;
11767;SDS011;5941;57.652;12.514;2022-12-07T06:48:15;1.60;;;1.50;;
11767;SDS011;5941;57.652;12.514;2022-12-07T06:50:44;3.03;;;1.70;;
11767;SDS011;5941;57.652;12.514;2022-12-07T06:53:10;3.17;;;1.90;;
11767;SDS011;5941;57.652;12.514;2022-12-07T06:55:36;3.50;;;1.73;;
11767;SDS011;5941;57.652;12.514;2022-12-07T06:58:02;3.17;;;1.53;;
11767;SDS011;5941;57.652;12.514;2022-12-07T07:00:28;2.90;;;1.70;;
11767;SDS011;5941;57.652;12.514;2022-12-07T07:02:54;3.20;;;1.90;;
11767;SDS011;5941;57.652;12.514;2022-12-07T07:05:20;4.30;;;1.90;;
11767;SDS011;5941;57.652;12.514;2022-12-07T07:07:47;2.27;;;1.40;;
11767;SDS011;5941;57.652;12.514;2022-12-07T07:10:13;2.20;;;1.60;;
11767;SDS011;5941;57.652;12.514;2022-12-07T07:12:39;2.03;;;1.63;;
11767;SDS011;5941;57.652;12.514;2022-12-07T07:15:05;2.47;;;1.80;;
11767;SDS011;5941;57.652;12.514;2022-12-07T07:17:31;2.10;;;1.70;;
11767;SDS011;5941;57.652;12.514;2022-12-07T07:19:57;2.67;;;1.73;;
11767;SDS011;5941;57.652;12.514;2022-12-07T07:22:23;2.93;;;1.40;;
11767;SDS011;5941;57.652;12.514;2022-12-07T07:24:49;1.87;;;1.60;;
11767;SDS011;5941;57.652;12.514;2022-12-07T07:27:15;3.80;;;1.93;;
11767;SDS011;5941;57.652;12.514;2022-12-07T07:29:41;3.27;;;2.00;;
11767;SDS011;5941;57.652;12.514;2022-12-07T07:32:08;3.57;;;1.70;;
11767;SDS011;5941;57.652;12.514;2022-12-07T07:34:34;2.33;;;1.60;;
11767;SDS011;5941;57.652;12.514;2022-12-07T07:37:00;3.30;;;1.60;;
11767;SDS011;5941;57.652;12.514;2022-12-07T07:39:26;3.87;;;1.70;;
11767;SDS011;5941;57.652;12.514;2022-12-07T07:41:52;2.50;;;1.60;;
11767;SDS011;5941;57.652;12.514;2022-12-07T07:44:18;2.33;;;1.67;;
11767;SDS011;5941;57.652;12.514;2022-12-07T07:46:43;2.03;;;1.80;;
11767;SDS011;5941;57.652;12.514;2022-12-07T07:49:10;3.40;;;1.97;;
11767;SDS011;5941;57.652;12.514;2022-12-07T07:51:36;2.17;;;1.67;;
11767;SDS011;5941;57.652;12.514;2022-12-07T07:54:02;2.10;;;1.80;;
11767;SDS011;5941;57.652;12.514;2022-12-07T07:56:28;2.93;;;1.67;;
11767;SDS011;5941;57.652;12.514;2022-12-07T07:58:54;2.73;;;1.73;;
11767;SDS011;5941;57.652;12.514;2022-12-07T08:01:22;2.77;;;1.67;;
11767;SDS011;5941;57.652;12.514;2022-12-07T08:03:48;2.30;;;1.90;;
11767;SDS011;5941;57.652;12.514;2022-12-07T08:06:14;2.47;;;1.60;;
11767;SDS011;5941;57.652;12.514;2022-12-07T08:08:40;3.20;;;2.00;;
11767;SDS011;5941;57.652;12.514;2022-12-07T08:11:07;3.97;;;2.00;;
11767;SDS011;5941;57.652;12.514;2022-12-07T08:13:33;2.73;;;1.60;;
11767;SDS011;5941;57.652;12.514;2022-12-07T08:15:59;2.83;;;2.00;;
11767;SDS011;5941;57.652;12.514;2022-12-07T08:18:28;2.93;;;1.70;;
11767;SDS011;5941;57.652;12.514;2022-12-07T08:21:00;2.13;;;1.80;;
11767;SDS011;5941;57.652;12.514;2022-12-07T08:23:26;3.13;;;1.90;;
11767;SDS011;5941;57.652;12.514;2022-12-07T08:25:52;6.10;;;1.83;;
11767;SDS011;5941;57.652;12.514;2022-12-07T08:28:18;3.13;;;1.70;;
11767;SDS011;5941;57.652;12.514;2022-12-07T08:30:44;2.87;;;2.03;;
11767;SDS011;5941;57.652;12.514;2022-12-07T08:33:10;2.57;;;1.70;;
11767;SDS011;5941;57.652;12.514;2022-12-07T08:35:36;2.17;;;1.80;;
11767;SDS011;5941;57.652;12.514;2022-12-07T08:38:03;2.20;;;1.87;;
11767;SDS011;5941;57.652;12.514;2022-12-07T08:40:29;4.17;;;2.00;;
11767;SDS011;5941;57.652;12.514;2022-12-07T08:42:56;2.27;;;1.50;;
11767;SDS011;5941;57.652;12.514;2022-12-07T08:45:22;2.80;;;2.10;;
11767;SDS011;5941;57.652;12.514;2022-12-07T08:47:52;2.57;;;1.80;;
11767;SDS011;5941;57.652;12.514;2022-12-07T08:50:19;2.60;;;1.70;;
11767;SDS011;5941;57.652;12.514;2022-12-07T08:52:48;2.97;;;2.10;;
11767;SDS011;5941;57.652;12.514;2022-12-07T08:55:15;1.90;;;1.57;;
11767;SDS011;5941;57.652;12.514;2022-12-07T08:57:41;3.27;;;1.80;;
11767;SDS011;5941;57.652;12.514;2022-12-07T09:00:08;3.30;;;1.77;;
11767;SDS011;5941;57.652;12.514;2022-12-07T09:02:34;4.10;;;2.07;;
11767;SDS011;5941;57.652;12.514;2022-12-07T09:05:00;2.87;;;2.20;;
11767;SDS011;5941;57.652;12.514;2022-12-07T09:07:26;3.20;;;1.70;;
11767;SDS011;5941;57.652;12.514;2022-12-07T09:09:52;1.60;;;1.50;;
11767;SDS011;5941;57.652;12.514;2022-12-07T09:12:18;2.67;;;1.67;;
11767;SDS011;5941;57.652;12.514;2022-12-07T09:14:44;2.20;;;1.40;;
11767;SDS011;5941;57.652;12.514;2022-12-07T09:17:11;2.10;;;1.60;;
11767;SDS011;5941;57.652;12.514;2022-12-07T09:19:38;2.27;;;1.63;;
11767;SDS011;5941;57.652;12.514;2022-12-07T09:22:04;2.13;;;1.47;;
11767;SDS011;5941;57.652;12.514;2022-12-07T09:24:31;2.70;;;1.90;;
11767;SDS011;5941;57.652;12.514;2022-12-07T09:26:57;2.10;;;1.37;;
11767;SDS011;5941;57.652;12.514;2022-12-07T09:29:23;2.70;;;1.40;;
11767;SDS011;5941;57.652;12.514;2022-12-07T09:31:50;2.90;;;1.67;;
11767;SDS011;5941;57.652;12.514;2022-12-07T09:34:16;4.23;;;1.40;;
11767;SDS011;5941;57.652;12.514;2022-12-07T09:36:42;2.20;;;1.57;;
11767;SDS011;5941;57.652;12.514;2022-12-07T09:39:08;2.43;;;1.47;;
11767;SDS011;5941;57.652;12.514;2022-12-07T09:41:37;2.57;;;1.50;;
11767;SDS011;5941;57.652;12.514;2022-12-07T09:44:09;3.87;;;1.60;;
11767;SDS011;5941;57.652;12.514;2022-12-07T09:46:36;1.90;;;1.20;;
11767;SDS011;5941;57.652;12.514;2022-12-07T09:49:03;2.07;;;1.17;;
11767;SDS011;5941;57.652;12.514;2022-12-07T09:51:29;2.03;;;1.40;;
11767;SDS011;5941;57.652;12.514;2022-12-07T09:53:55;1.30;;;1.20;;
11767;SDS011;5941;57.652;12.514;2022-12-07T09:56:22;1.40;;;1.10;;
11767;SDS011;5941;57.652;12.514;2022-12-07T09:58:49;2.50;;;1.30;;
11767;SDS011;5941;57.652;12.514;2022-12-07T10:01:16;2.63;;;1.27;;
11767;SDS011;5941;57.652;12.514;2022-12-07T10:03:45;1.37;;;1.20;;
11767;SDS011;5941;57.652;12.514;2022-12-07T10:06:13;2.10;;;1.40;;
11767;SDS011;5941;57.652;12.514;2022-12-07T10:08:39;1.77;;;1.27;;
11767;SDS011;5941;57.652;12.514;2022-12-07T10:11:08;1.63;;;1.13;;
11767;SDS011;5941;57.652;12.514;2022-12-07T10:13:39;1.60;;;1.30;;
11767;SDS011;5941;57.652;12.514;2022-12-07T10:16:05;1.57;;;0.97;;
11767;SDS011;5941;57.652;12.514;2022-12-07T10:18:36;1.40;;;1.30;;
11767;SDS011;5941;57.652;12.514;2022-12-07T10:21:09;1.50;;;1.00;;
11767;SDS011;5941;57.652;12.514;2022-12-07T10:23:36;1.10;;;1.00;;
11767;SDS011;5941;57.652;12.514;2022-12-07T10:29:49;2.30;;;1.17;;
11767;SDS011;5941;57.652;12.514;2022-12-07T10:34:53;2.40;;;0.93;;
11767;SDS011;5941;57.652;12.514;2022-12-07T10:37:18;1.20;;;1.10;;
11767;SDS011;5941;57.652;12.514;2022-12-07T10:39:46;0.97;;;0.80;;
11767;SDS011;5941;57.652;12.514;2022-12-07T10:42:22;1.63;;;0.87;;
11767;SDS011;5941;57.652;12.514;2022-12-07T10:44:49;1.07;;;0.70;;
11767;SDS011;5941;57.652;12.514;2022-12-07T10:47:27;1.73;;;0.80;;
11767;SDS011;5941;57.652;12.514;2022-12-07T10:50:06;1.67;;;0.80;;
11767;SDS011;5941;57.652;12.514;2022-12-07T10:52:41;1.03;;;0.70;;
11767;SDS011;5941;57.652;12.514;2022-12-07T11:07:56;0.87;;;0.57;;
11767;SDS011;5941;57.652;12.514;2022-12-07T11:13:04;1.27;;;0.53;;
11767;SDS011;5941;57.652;12.514;2022-12-07T11:16:14;4.27;;;0.83;;
11767;SDS011;5941;57.652;12.514;2022-12-07T11:21:07;0.97;;;0.67;;
11767;SDS011;5941;57.652;12.514;2022-12-07T11:23:45;0.80;;;0.70;;
11767;SDS011;5941;57.652;12.514;2022-12-07T11:31:47;1.10;;;0.50;;
11767;SDS011;5941;57.652;12.514;2022-12-07T11:36:49;0.50;;;0.50;;
11767;SDS011;5941;57.652;12.514;2022-12-07T11:39:23;0.80;;;0.57;;
11767;SDS011;5941;57.652;12.514;2022-12-07T11:42:09;0.80;;;0.63;;
11767;SDS011;5941;57.652;12.514;2022-12-07T11:44:40;0.53;;;0.47;;
11767;SDS011;5941;57.652;12.514;2022-12-07T11:47:18;0.70;;;0.60;;
11767;SDS011;5941;57.652;12.514;2022-12-07T11:55:16;0.57;;;0.50;;
11767;SDS011;5941;57.652;12.514;2022-12-07T11:57:45;0.50;;;0.40;;
11767;SDS011;5941;57.652;12.514;2022-12-07T12:00:14;1.17;;;0.50;;
11767;SDS011;5941;57.652;12.514;2022-12-07T12:02:46;2.00;;;0.57;;
11767;SDS011;5941;57.652;12.514;2022-12-07T12:07:40;1.20;;;0.60;;
11767;SDS011;5941;57.652;12.514;2022-12-07T12:10:15;0.57;;;0.57;;
11767;SDS011;5941;57.652;12.514;2022-12-07T12:12:46;0.77;;;0.57;;
11767;SDS011;5941;57.652;12.514;2022-12-07T12:17:47;1.30;;;0.70;;
11767;SDS011;5941;57.652;12.514;2022-12-07T12:20:23;1.53;;;0.60;;
11767;SDS011;5941;57.652;12.514;2022-12-07T12:25:39;0.60;;;0.50;;
11767;SDS011;5941;57.652;12.514;2022-12-07T12:28:15;1.33;;;0.63;;
11767;SDS011;5941;57.652;12.514;2022-12-07T12:30:44;0.40;;;0.40;;
11767;SDS011;5941;57.652;12.514;2022-12-07T12:33:20;0.93;;;0.60;;
11767;SDS011;5941;57.652;12.514;2022-12-07T12:36:05;1.33;;;0.60;;
11767;SDS011;5941;57.652;12.514;2022-12-07T12:38:34;0.60;;;0.60;;
11767;SDS011;5941;57.652;12.514;2022-12-07T12:43:58;0.60;;;0.60;;
11767;SDS011;5941;57.652;12.514;2022-12-07T12:51:45;0.83;;;0.50;;
11767;SDS011;5941;57.652;12.514;2022-12-07T12:54:15;1.17;;;0.67;;
11767;SDS011;5941;57.652;12.514;2022-12-07T12:56:42;1.17;;;0.63;;
11767;SDS011;5941;57.652;12.514;2022-12-07T12:59:21;0.93;;;0.63;;
11767;SDS011;5941;57.652;12.514;2022-12-07T13:01:49;1.27;;;0.60;;
11767;SDS011;5941;57.652;12.514;2022-12-07T13:06:44;2.10;;;0.93;;
11767;SDS011;5941;57.652;12.514;2022-12-07T13:09:18;1.40;;;0.80;;
11767;SDS011;5941;57.652;12.514;2022-12-07T13:11:46;0.80;;;0.70;;
11767;SDS011;5941;57.652;12.514;2022-12-07T13:16:57;2.40;;;0.87;;
11767;SDS011;5941;57.652;12.514;2022-12-07T13:22:53;0.80;;;0.63;;
11767;SDS011;5941;57.652;12.514;2022-12-07T13:27:24;2.00;;;0.80;;
11767;SDS011;5941;57.652;12.514;2022-12-07T13:29:50;0.50;;;0.50;;
11767;SDS011;5941;57.652;12.514;2022-12-07T13:32:26;0.60;;;0.60;;
11767;SDS011;5941;57.652;12.514;2022-12-07T13:34:52;1.00;;;0.60;;
11767;SDS011;5941;57.652;12.514;2022-12-07T13:37:30;1.13;;;0.50;;
11767;SDS011;5941;57.652;12.514;2022-12-07T13:40:03;1.00;;;0.60;;
11767;SDS011;5941;57.652;12.514;2022-12-07T13:42:41;2.57;;;1.00;;
11767;SDS011;5941;57.652;12.514;2022-12-07T13:45:41;1.07;;;0.87;;
11767;SDS011;5941;57.652;12.514;2022-12-07T13:48:41;1.57;;;0.57;;
11767;SDS011;5941;57.652;12.514;2022-12-07T13:51:03;2.03;;;0.77;;
11767;SDS011;5941;57.652;12.514;2022-12-07T13:53:29;1.57;;;0.80;;
11767;SDS011;5941;57.652;12.514;2022-12-07T13:55:59;0.83;;;0.60;;
11767;SDS011;5941;57.652;12.514;2022-12-07T13:58:30;1.13;;;0.70;;
11767;SDS011;5941;57.652;12.514;2022-12-07T14:00:56;0.67;;;0.43;;
11767;SDS011;5941;57.652;12.514;2022-12-07T14:03:30;0.67;;;0.60;;
11767;SDS011;5941;57.652;12.514;2022-12-07T14:06:13;1.30;;;0.70;;
11767;SDS011;5941;57.652;12.514;2022-12-07T14:08:40;1.53;;;0.60;;
11767;SDS011;5941;57.652;12.514;2022-12-07T14:11:06;1.00;;;0.70;;
11767;SDS011;5941;57.652;12.514;2022-12-07T14:16:00;2.00;;;0.60;;
11767;SDS011;5941;57.652;12.514;2022-12-07T14:21:02;2.37;;;0.70;;
11767;SDS011;5941;57.652;12.514;2022-12-07T14:23:28;0.73;;;0.60;;
11767;SDS011;5941;57.652;12.514;2022-12-07T14:26:03;0.50;;;0.50;;
11767;SDS011;5941;57.652;12.514;2022-12-07T14:28:33;0.90;;;0.67;;
11767;SDS011;5941;57.652;12.514;2022-12-07T14:31:00;0.67;;;0.60;;
11767;SDS011;5941;57.652;12.514;2022-12-07T14:33:26;1.90;;;0.83;;
11767;SDS011;5941;57.652;12.514;2022-12-07T14:35:52;0.40;;;0.40;;
11767;SDS011;5941;57.652;12.514;2022-12-07T14:38:23;1.13;;;0.50;;
11767;SDS011;5941;57.652;12.514;2022-12-07T14:40:50;0.60;;;0.60;;
11767;SDS011;5941;57.652;12.514;2022-12-07T14:43:16;0.63;;;0.60;;
11767;SDS011;5941;57.652;12.514;2022-12-07T14:45:43;0.70;;;0.70;;
11767;SDS011;5941;57.652;12.514;2022-12-07T14:48:12;0.83;;;0.63;;
11767;SDS011;5941;57.652;12.514;2022-12-07T14:50:43;1.07;;;0.90;;
11767;SDS011;5941;57.652;12.514;2022-12-07T14:53:12;1.87;;;0.60;;
11767;SDS011;5941;57.652;12.514;2022-12-07T14:55:38;0.47;;;0.40;;
11767;SDS011;5941;57.652;12.514;2022-12-07T14:58:04;1.00;;;0.73;;
11767;SDS011;5941;57.652;12.514;2022-12-07T15:00:30;0.77;;;0.67;;
11767;SDS011;5941;57.652;12.514;2022-12-07T15:02:56;1.50;;;0.70;;
11767;SDS011;5941;57.652;12.514;2022-12-07T15:05:22;0.90;;;0.70;;
11767;SDS011;5941;57.652;12.514;2022-12-07T15:07:49;1.20;;;0.60;;
11767;SDS011;5941;57.652;12.514;2022-12-07T15:10:22;0.77;;;0.60;;
11767;SDS011;5941;57.652;12.514;2022-12-07T15:12:48;0.80;;;0.50;;
11767;SDS011;5941;57.652;12.514;2022-12-07T15:15:14;0.90;;;0.70;;
11767;SDS011;5941;57.652;12.514;2022-12-07T15:17:41;1.80;;;0.80;;
11767;SDS011;5941;57.652;12.514;2022-12-07T15:20:10;0.60;;;0.60;;
11767;SDS011;5941;57.652;12.514;2022-12-07T15:22:37;0.70;;;0.70;;
11767;SDS011;5941;57.652;12.514;2022-12-07T15:25:03;1.93;;;0.70;;
11767;SDS011;5941;57.652;12.514;2022-12-07T15:27:30;1.27;;;0.70;;
11767;SDS011;5941;57.652;12.514;2022-12-07T15:29:56;0.93;;;0.70;;
11767;SDS011;5941;57.652;12.514;2022-12-07T15:32:22;0.97;;;0.50;;
11767;SDS011;5941;57.652;12.514;2022-12-07T15:34:48;1.50;;;0.60;;
11767;SDS011;5941;57.652;12.514;2022-12-07T15:37:15;1.07;;;0.60;;
11767;SDS011;5941;57.652;12.514;2022-12-07T15:39:41;0.73;;;0.60;;
11767;SDS011;5941;57.652;12.514;2022-12-07T15:42:07;0.50;;;0.50;;
11767;SDS011;5941;57.652;12.514;2022-12-07T15:44:33;1.50;;;0.50;;
11767;SDS011;5941;57.652;12.514;2022-12-07T15:47:17;0.53;;;0.50;;
11767;SDS011;5941;57.652;12.514;2022-12-07T15:49:43;0.40;;;0.40;;
11767;SDS011;5941;57.652;12.514;2022-12-07T15:52:09;1.60;;;0.80;;
11767;SDS011;5941;57.652;12.514;2022-12-07T15:54:35;0.70;;;0.50;;
11767;SDS011;5941;57.652;12.514;2022-12-07T15:57:01;1.07;;;0.40;;
11767;SDS011;5941;57.652;12.514;2022-12-07T15:59:27;0.60;;;0.60;;
11767;SDS011;5941;57.652;12.514;2022-12-07T16:01:54;1.00;;;0.50;;
11767;SDS011;5941;57.652;12.514;2022-12-07T16:04:20;0.63;;;0.60;;
11767;SDS011;5941;57.652;12.514;2022-12-07T16:06:46;1.57;;;0.57;;
11767;SDS011;5941;57.652;12.514;2022-12-07T16:09:12;0.63;;;0.50;;
11767;SDS011;5941;57.652;12.514;2022-12-07T16:11:38;0.57;;;0.57;;
11767;SDS011;5941;57.652;12.514;2022-12-07T16:14:04;0.50;;;0.50;;
11767;SDS011;5941;57.652;12.514;2022-12-07T16:16:30;0.60;;;0.60;;
11767;SDS011;5941;57.652;12.514;2022-12-07T16:18:56;0.67;;;0.60;;
11767;SDS011;5941;57.652;12.514;2022-12-07T16:21:22;0.97;;;0.67;;
11767;SDS011;5941;57.652;12.514;2022-12-07T16:23:48;0.97;;;0.70;;
11767;SDS011;5941;57.652;12.514;2022-12-07T16:26:16;1.50;;;0.50;;
11767;SDS011;5941;57.652;12.514;2022-12-07T16:28:43;0.77;;;0.40;;